sensor_id;sensor_type;location;lat;lon;timestamp;P1;durP1;ratioP1;P2;durP2;ratioP2
37873;SDS011;23709;48.078;11.684;2023-03-31T00:00:36;15.93;;;8.38;;
37873;SDS011;23709;48.078;11.684;2023-03-31T00:03:09;13.07;;;7.90;;
37873;SDS011;23709;48.078;11.684;2023-03-31T00:05:41;13.68;;;7.50;;
37873;SDS011;23709;48.078;11.684;2023-03-31T00:08:18;14.57;;;7.72;;
37873;SDS011;23709;48.078;11.684;2023-03-31T00:10:51;18.98;;;8.40;;
37873;SDS011;23709;48.078;11.684;2023-03-31T00:13:24;22.05;;;8.65;;
37873;SDS011;23709;48.078;11.684;2023-03-31T00:16:01;15.02;;;8.68;;
37873;SDS011;23709;48.078;11.684;2023-03-31T00:18:35;12.25;;;7.85;;
37873;SDS011;23709;48.078;11.684;2023-03-31T00:21:12;13.90;;;7.80;;
37873;SDS011;23709;48.078;11.684;2023-03-31T00:23:57;14.23;;;8.18;;
37873;SDS011;23709;48.078;11.684;2023-03-31T00:26:40;16.42;;;8.73;;
37873;SDS011;23709;48.078;11.684;2023-03-31T00:29:13;13.40;;;7.50;;
37873;SDS011;23709;48.078;11.684;2023-03-31T00:31:45;18.00;;;8.73;;
37873;SDS011;23709;48.078;11.684;2023-03-31T00:34:17;13.23;;;8.40;;
37873;SDS011;23709;48.078;11.684;2023-03-31T00:36:49;17.00;;;9.45;;
37873;SDS011;23709;48.078;11.684;2023-03-31T00:39:21;17.98;;;8.48;;
37873;SDS011;23709;48.078;11.684;2023-03-31T00:42:02;20.50;;;8.48;;
37873;SDS011;23709;48.078;11.684;2023-03-31T00:44:35;19.80;;;9.13;;
37873;SDS011;23709;48.078;11.684;2023-03-31T00:47:30;13.55;;;7.68;;
37873;SDS011;23709;48.078;11.684;2023-03-31T00:50:02;16.42;;;9.00;;
37873;SDS011;23709;48.078;11.684;2023-03-31T00:52:34;19.83;;;8.57;;
37873;SDS011;23709;48.078;11.684;2023-03-31T00:55:09;16.65;;;8.05;;
37873;SDS011;23709;48.078;11.684;2023-03-31T00:57:48;19.95;;;8.20;;
37873;SDS011;23709;48.078;11.684;2023-03-31T01:00:24;13.50;;;8.93;;
37873;SDS011;23709;48.078;11.684;2023-03-31T01:02:57;16.92;;;9.38;;
37873;SDS011;23709;48.078;11.684;2023-03-31T01:05:54;15.27;;;9.20;;
37873;SDS011;23709;48.078;11.684;2023-03-31T01:11:12;18.50;;;9.20;;
37873;SDS011;23709;48.078;11.684;2023-03-31T01:13:47;19.42;;;8.95;;
37873;SDS011;23709;48.078;11.684;2023-03-31T01:16:21;17.15;;;8.80;;
37873;SDS011;23709;48.078;11.684;2023-03-31T01:18:53;20.67;;;9.02;;
37873;SDS011;23709;48.078;11.684;2023-03-31T01:27:47;17.48;;;9.20;;
37873;SDS011;23709;48.078;11.684;2023-03-31T01:36:42;10.88;;;8.07;;
37873;SDS011;23709;48.078;11.684;2023-03-31T01:42:23;14.48;;;9.20;;
37873;SDS011;23709;48.078;11.684;2023-03-31T01:45:30;17.07;;;8.83;;
37873;SDS011;23709;48.078;11.684;2023-03-31T01:48:14;15.25;;;9.15;;
37873;SDS011;23709;48.078;11.684;2023-03-31T01:56:09;14.05;;;8.68;;
37873;SDS011;23709;48.078;11.684;2023-03-31T01:58:49;16.15;;;8.98;;
37873;SDS011;23709;48.078;11.684;2023-03-31T02:01:31;18.55;;;9.35;;
37873;SDS011;23709;48.078;11.684;2023-03-31T02:06:46;15.18;;;8.88;;
37873;SDS011;23709;48.078;11.684;2023-03-31T02:09:25;16.20;;;8.93;;
37873;SDS011;23709;48.078;11.684;2023-03-31T02:12:08;20.05;;;10.05;;
37873;SDS011;23709;48.078;11.684;2023-03-31T02:14:43;16.98;;;8.30;;
37873;SDS011;23709;48.078;11.684;2023-03-31T02:17:18;16.45;;;9.25;;
37873;SDS011;23709;48.078;11.684;2023-03-31T02:20:03;13.00;;;8.32;;
37873;SDS011;23709;48.078;11.684;2023-03-31T02:22:44;17.58;;;9.38;;
37873;SDS011;23709;48.078;11.684;2023-03-31T02:25:25;17.15;;;8.93;;
37873;SDS011;23709;48.078;11.684;2023-03-31T02:28:04;14.32;;;8.60;;
37873;SDS011;23709;48.078;11.684;2023-03-31T02:33:28;16.13;;;9.23;;
37873;SDS011;23709;48.078;11.684;2023-03-31T02:36:01;14.35;;;8.43;;
37873;SDS011;23709;48.078;11.684;2023-03-31T02:38:38;16.65;;;9.20;;
37873;SDS011;23709;48.078;11.684;2023-03-31T02:41:15;19.65;;;8.70;;
37873;SDS011;23709;48.078;11.684;2023-03-31T02:43:47;18.65;;;9.20;;
37873;SDS011;23709;48.078;11.684;2023-03-31T02:46:20;16.48;;;8.48;;
37873;SDS011;23709;48.078;11.684;2023-03-31T02:48:54;18.15;;;8.65;;
37873;SDS011;23709;48.078;11.684;2023-03-31T03:00:39;17.83;;;7.90;;
37873;SDS011;23709;48.078;11.684;2023-03-31T03:03:26;18.42;;;9.05;;
37873;SDS011;23709;48.078;11.684;2023-03-31T03:06:06;17.05;;;9.05;;
37873;SDS011;23709;48.078;11.684;2023-03-31T03:14:38;14.85;;;7.82;;
37873;SDS011;23709;48.078;11.684;2023-03-31T03:17:44;14.85;;;8.27;;
37873;SDS011;23709;48.078;11.684;2023-03-31T03:20:20;14.63;;;8.17;;
37873;SDS011;23709;48.078;11.684;2023-03-31T03:22:53;18.67;;;8.20;;
37873;SDS011;23709;48.078;11.684;2023-03-31T03:25:25;15.82;;;7.80;;
37873;SDS011;23709;48.078;11.684;2023-03-31T03:27:57;20.42;;;8.23;;
37873;SDS011;23709;48.078;11.684;2023-03-31T03:30:29;13.90;;;8.40;;
37873;SDS011;23709;48.078;11.684;2023-03-31T03:33:01;20.88;;;11.43;;
37873;SDS011;23709;48.078;11.684;2023-03-31T03:35:36;24.23;;;11.30;;
37873;SDS011;23709;48.078;11.684;2023-03-31T03:38:09;18.10;;;9.40;;
37873;SDS011;23709;48.078;11.684;2023-03-31T03:40:41;17.05;;;9.15;;
37873;SDS011;23709;48.078;11.684;2023-03-31T03:43:13;22.75;;;9.75;;
37873;SDS011;23709;48.078;11.684;2023-03-31T03:45:48;17.02;;;8.93;;
37873;SDS011;23709;48.078;11.684;2023-03-31T03:48:21;21.60;;;9.90;;
37873;SDS011;23709;48.078;11.684;2023-03-31T03:50:53;16.02;;;9.50;;
37873;SDS011;23709;48.078;11.684;2023-03-31T03:53:26;17.92;;;10.43;;
37873;SDS011;23709;48.078;11.684;2023-03-31T03:55:58;23.08;;;11.25;;
37873;SDS011;23709;48.078;11.684;2023-03-31T03:58:32;21.23;;;11.95;;
37873;SDS011;23709;48.078;11.684;2023-03-31T04:01:04;18.25;;;10.73;;
37873;SDS011;23709;48.078;11.684;2023-03-31T04:03:36;22.27;;;10.40;;
37873;SDS011;23709;48.078;11.684;2023-03-31T04:06:08;23.45;;;10.60;;
37873;SDS011;23709;48.078;11.684;2023-03-31T04:08:41;21.30;;;10.27;;
37873;SDS011;23709;48.078;11.684;2023-03-31T04:11:14;22.40;;;11.00;;
37873;SDS011;23709;48.078;11.684;2023-03-31T04:13:49;27.13;;;10.75;;
37873;SDS011;23709;48.078;11.684;2023-03-31T04:16:22;23.13;;;11.48;;
37873;SDS011;23709;48.078;11.684;2023-03-31T04:21:30;17.88;;;10.75;;
37873;SDS011;23709;48.078;11.684;2023-03-31T04:24:05;26.33;;;11.32;;
37873;SDS011;23709;48.078;11.684;2023-03-31T04:26:37;23.67;;;11.10;;
37873;SDS011;23709;48.078;11.684;2023-03-31T04:29:14;24.27;;;11.77;;
37873;SDS011;23709;48.078;11.684;2023-03-31T04:31:47;21.42;;;11.55;;
37873;SDS011;23709;48.078;11.684;2023-03-31T04:34:21;27.15;;;13.32;;
37873;SDS011;23709;48.078;11.684;2023-03-31T04:36:57;21.65;;;12.38;;
37873;SDS011;23709;48.078;11.684;2023-03-31T04:39:33;23.55;;;11.90;;
37873;SDS011;23709;48.078;11.684;2023-03-31T04:42:05;24.58;;;12.82;;
37873;SDS011;23709;48.078;11.684;2023-03-31T04:44:38;26.08;;;13.25;;
37873;SDS011;23709;48.078;11.684;2023-03-31T04:47:10;22.67;;;12.10;;
37873;SDS011;23709;48.078;11.684;2023-03-31T04:49:42;28.73;;;12.25;;
37873;SDS011;23709;48.078;11.684;2023-03-31T04:52:14;18.15;;;12.20;;
37873;SDS011;23709;48.078;11.684;2023-03-31T04:54:46;24.30;;;13.13;;
37873;SDS011;23709;48.078;11.684;2023-03-31T04:57:19;25.92;;;13.35;;
37873;SDS011;23709;48.078;11.684;2023-03-31T04:59:52;23.75;;;13.95;;
37873;SDS011;23709;48.078;11.684;2023-03-31T05:02:24;22.80;;;13.35;;
37873;SDS011;23709;48.078;11.684;2023-03-31T05:04:56;26.88;;;13.23;;
37873;SDS011;23709;48.078;11.684;2023-03-31T05:07:29;21.37;;;13.27;;
37873;SDS011;23709;48.078;11.684;2023-03-31T05:10:02;26.95;;;15.15;;
37873;SDS011;23709;48.078;11.684;2023-03-31T05:12:36;29.65;;;15.25;;
37873;SDS011;23709;48.078;11.684;2023-03-31T05:15:08;27.48;;;16.25;;
37873;SDS011;23709;48.078;11.684;2023-03-31T05:17:41;29.00;;;13.30;;
37873;SDS011;23709;48.078;11.684;2023-03-31T05:20:14;20.67;;;12.57;;
37873;SDS011;23709;48.078;11.684;2023-03-31T05:22:47;25.63;;;14.63;;
37873;SDS011;23709;48.078;11.684;2023-03-31T05:25:19;25.80;;;12.93;;
37873;SDS011;23709;48.078;11.684;2023-03-31T05:27:51;22.98;;;12.18;;
37873;SDS011;23709;48.078;11.684;2023-03-31T05:30:24;25.35;;;13.25;;
37873;SDS011;23709;48.078;11.684;2023-03-31T05:33:03;28.63;;;15.02;;
37873;SDS011;23709;48.078;11.684;2023-03-31T05:35:38;21.00;;;12.75;;
37873;SDS011;23709;48.078;11.684;2023-03-31T05:38:10;22.05;;;13.30;;
37873;SDS011;23709;48.078;11.684;2023-03-31T05:40:43;22.55;;;11.85;;
37873;SDS011;23709;48.078;11.684;2023-03-31T05:43:15;25.10;;;13.98;;
37873;SDS011;23709;48.078;11.684;2023-03-31T05:45:47;24.17;;;12.82;;
37873;SDS011;23709;48.078;11.684;2023-03-31T05:48:20;22.20;;;11.90;;
37873;SDS011;23709;48.078;11.684;2023-03-31T05:50:56;24.40;;;13.10;;
37873;SDS011;23709;48.078;11.684;2023-03-31T05:53:29;23.52;;;13.40;;
37873;SDS011;23709;48.078;11.684;2023-03-31T05:56:02;33.30;;;13.20;;
37873;SDS011;23709;48.078;11.684;2023-03-31T05:58:37;23.02;;;12.27;;
37873;SDS011;23709;48.078;11.684;2023-03-31T06:01:11;35.42;;;13.32;;
37873;SDS011;23709;48.078;11.684;2023-03-31T06:03:50;25.33;;;11.15;;
37873;SDS011;23709;48.078;11.684;2023-03-31T06:06:22;23.88;;;12.25;;
37873;SDS011;23709;48.078;11.684;2023-03-31T06:08:56;20.25;;;10.98;;
37873;SDS011;23709;48.078;11.684;2023-03-31T06:11:29;21.35;;;11.07;;
37873;SDS011;23709;48.078;11.684;2023-03-31T06:14:01;21.58;;;11.07;;
37873;SDS011;23709;48.078;11.684;2023-03-31T06:16:34;22.23;;;11.18;;
37873;SDS011;23709;48.078;11.684;2023-03-31T06:19:06;20.60;;;11.50;;
37873;SDS011;23709;48.078;11.684;2023-03-31T06:21:39;18.98;;;11.98;;
37873;SDS011;23709;48.078;11.684;2023-03-31T06:24:11;18.25;;;10.10;;
37873;SDS011;23709;48.078;11.684;2023-03-31T06:26:44;17.77;;;11.95;;
37873;SDS011;23709;48.078;11.684;2023-03-31T06:29:16;21.90;;;11.10;;
37873;SDS011;23709;48.078;11.684;2023-03-31T06:31:48;19.52;;;11.15;;
37873;SDS011;23709;48.078;11.684;2023-03-31T06:34:21;17.88;;;9.98;;
37873;SDS011;23709;48.078;11.684;2023-03-31T06:36:53;21.90;;;10.85;;
37873;SDS011;23709;48.078;11.684;2023-03-31T06:39:25;17.13;;;10.82;;
37873;SDS011;23709;48.078;11.684;2023-03-31T06:41:58;19.60;;;10.50;;
37873;SDS011;23709;48.078;11.684;2023-03-31T06:44:31;21.98;;;10.30;;
37873;SDS011;23709;48.078;11.684;2023-03-31T06:47:04;23.67;;;10.98;;
37873;SDS011;23709;48.078;11.684;2023-03-31T06:49:36;18.00;;;8.52;;
37873;SDS011;23709;48.078;11.684;2023-03-31T06:52:08;18.13;;;8.60;;
37873;SDS011;23709;48.078;11.684;2023-03-31T06:54:45;17.27;;;8.48;;
37873;SDS011;23709;48.078;11.684;2023-03-31T06:57:17;15.50;;;9.20;;
37873;SDS011;23709;48.078;11.684;2023-03-31T06:59:54;18.65;;;9.02;;
37873;SDS011;23709;48.078;11.684;2023-03-31T07:02:29;24.65;;;9.40;;
37873;SDS011;23709;48.078;11.684;2023-03-31T07:05:01;17.77;;;9.32;;
37873;SDS011;23709;48.078;11.684;2023-03-31T07:07:34;18.10;;;8.60;;
37873;SDS011;23709;48.078;11.684;2023-03-31T07:10:06;14.85;;;9.32;;
37873;SDS011;23709;48.078;11.684;2023-03-31T07:12:39;19.10;;;9.17;;
37873;SDS011;23709;48.078;11.684;2023-03-31T07:15:11;15.85;;;9.23;;
37873;SDS011;23709;48.078;11.684;2023-03-31T07:17:44;17.20;;;7.32;;
37873;SDS011;23709;48.078;11.684;2023-03-31T07:20:17;17.67;;;10.23;;
37873;SDS011;23709;48.078;11.684;2023-03-31T07:22:50;15.80;;;10.18;;
37873;SDS011;23709;48.078;11.684;2023-03-31T07:25:22;17.15;;;11.10;;
37873;SDS011;23709;48.078;11.684;2023-03-31T07:27:54;21.00;;;11.27;;
37873;SDS011;23709;48.078;11.684;2023-03-31T07:30:27;19.02;;;10.48;;
37873;SDS011;23709;48.078;11.684;2023-03-31T07:33:00;25.40;;;13.82;;
37873;SDS011;23709;48.078;11.684;2023-03-31T07:38:08;20.05;;;12.10;;
37873;SDS011;23709;48.078;11.684;2023-03-31T07:40:42;26.77;;;13.18;;
37873;SDS011;23709;48.078;11.684;2023-03-31T07:43:17;22.80;;;12.60;;
37873;SDS011;23709;48.078;11.684;2023-03-31T07:45:50;35.42;;;14.48;;
37873;SDS011;23709;48.078;11.684;2023-03-31T07:48:22;39.38;;;15.93;;
37873;SDS011;23709;48.078;11.684;2023-03-31T07:50:54;24.45;;;13.65;;
37873;SDS011;23709;48.078;11.684;2023-03-31T07:53:33;23.88;;;12.50;;
37873;SDS011;23709;48.078;11.684;2023-03-31T07:56:07;23.40;;;14.65;;
37873;SDS011;23709;48.078;11.684;2023-03-31T07:58:39;24.52;;;13.15;;
37873;SDS011;23709;48.078;11.684;2023-03-31T08:01:15;27.08;;;14.98;;
37873;SDS011;23709;48.078;11.684;2023-03-31T08:03:48;26.30;;;14.10;;
37873;SDS011;23709;48.078;11.684;2023-03-31T08:06:21;31.27;;;14.82;;
37873;SDS011;23709;48.078;11.684;2023-03-31T08:08:55;27.13;;;13.60;;
37873;SDS011;23709;48.078;11.684;2023-03-31T08:14:00;26.35;;;14.07;;
37873;SDS011;23709;48.078;11.684;2023-03-31T08:16:32;28.23;;;14.13;;
37873;SDS011;23709;48.078;11.684;2023-03-31T08:19:05;27.33;;;12.98;;
37873;SDS011;23709;48.078;11.684;2023-03-31T08:21:37;20.95;;;11.88;;
37873;SDS011;23709;48.078;11.684;2023-03-31T08:24:09;29.42;;;12.77;;
37873;SDS011;23709;48.078;11.684;2023-03-31T08:26:41;23.92;;;12.30;;
37873;SDS011;23709;48.078;11.684;2023-03-31T08:29:14;21.05;;;12.05;;
37873;SDS011;23709;48.078;11.684;2023-03-31T08:31:46;20.85;;;11.10;;
37873;SDS011;23709;48.078;11.684;2023-03-31T08:34:19;27.17;;;11.52;;
37873;SDS011;23709;48.078;11.684;2023-03-31T08:36:52;23.48;;;11.98;;
37873;SDS011;23709;48.078;11.684;2023-03-31T08:39:24;19.38;;;11.50;;
37873;SDS011;23709;48.078;11.684;2023-03-31T08:44:54;20.42;;;11.77;;
37873;SDS011;23709;48.078;11.684;2023-03-31T08:47:32;20.63;;;10.98;;
37873;SDS011;23709;48.078;11.684;2023-03-31T08:50:10;15.52;;;8.68;;
37873;SDS011;23709;48.078;11.684;2023-03-31T08:55:54;19.73;;;11.13;;
37873;SDS011;23709;48.078;11.684;2023-03-31T08:58:40;20.88;;;12.32;;
37873;SDS011;23709;48.078;11.684;2023-03-31T09:01:35;24.38;;;11.80;;
37873;SDS011;23709;48.078;11.684;2023-03-31T09:15:47;16.15;;;8.98;;
37873;SDS011;23709;48.078;11.684;2023-03-31T09:18:35;13.57;;;6.70;;
37873;SDS011;23709;48.078;11.684;2023-03-31T09:21:11;11.18;;;6.05;;
37873;SDS011;23709;48.078;11.684;2023-03-31T09:24:05;12.43;;;7.03;;
37873;SDS011;23709;48.078;11.684;2023-03-31T09:26:46;15.52;;;6.75;;
37873;SDS011;23709;48.078;11.684;2023-03-31T09:32:16;10.02;;;6.13;;
37873;SDS011;23709;48.078;11.684;2023-03-31T09:34:58;11.82;;;7.07;;
37873;SDS011;23709;48.078;11.684;2023-03-31T09:37:52;12.07;;;6.07;;
37873;SDS011;23709;48.078;11.684;2023-03-31T09:40:26;11.73;;;7.00;;
37873;SDS011;23709;48.078;11.684;2023-03-31T09:43:06;11.25;;;6.00;;
37873;SDS011;23709;48.078;11.684;2023-03-31T09:45:46;11.30;;;6.05;;
37873;SDS011;23709;48.078;11.684;2023-03-31T09:48:38;8.70;;;5.30;;
37873;SDS011;23709;48.078;11.684;2023-03-31T09:51:17;12.32;;;6.82;;
37873;SDS011;23709;48.078;11.684;2023-03-31T09:59:17;11.98;;;6.07;;
37873;SDS011;23709;48.078;11.684;2023-03-31T10:01:52;11.80;;;5.95;;
37873;SDS011;23709;48.078;11.684;2023-03-31T10:04:31;12.00;;;5.43;;
37873;SDS011;23709;48.078;11.684;2023-03-31T10:07:05;9.23;;;6.35;;
37873;SDS011;23709;48.078;11.684;2023-03-31T10:12:15;10.88;;;6.32;;
37873;SDS011;23709;48.078;11.684;2023-03-31T10:14:51;12.63;;;6.97;;
37873;SDS011;23709;48.078;11.684;2023-03-31T10:17:26;10.38;;;5.30;;
37873;SDS011;23709;48.078;11.684;2023-03-31T10:20:04;9.02;;;6.03;;
37873;SDS011;23709;48.078;11.684;2023-03-31T10:22:49;10.70;;;5.30;;
37873;SDS011;23709;48.078;11.684;2023-03-31T10:25:23;9.60;;;5.38;;
37873;SDS011;23709;48.078;11.684;2023-03-31T10:27:59;7.05;;;4.40;;
37873;SDS011;23709;48.078;11.684;2023-03-31T10:30:34;6.18;;;3.53;;
37873;SDS011;23709;48.078;11.684;2023-03-31T10:33:10;7.07;;;3.75;;
37873;SDS011;23709;48.078;11.684;2023-03-31T10:35:54;7.88;;;3.88;;
37873;SDS011;23709;48.078;11.684;2023-03-31T10:38:29;12.27;;;4.68;;
37873;SDS011;23709;48.078;11.684;2023-03-31T10:41:06;6.70;;;5.07;;
37873;SDS011;23709;48.078;11.684;2023-03-31T10:43:42;16.67;;;5.70;;
37873;SDS011;23709;48.078;11.684;2023-03-31T10:46:21;8.63;;;5.03;;
37873;SDS011;23709;48.078;11.684;2023-03-31T10:51:52;12.65;;;5.55;;
37873;SDS011;23709;48.078;11.684;2023-03-31T10:54:26;10.05;;;5.05;;
37873;SDS011;23709;48.078;11.684;2023-03-31T10:57:02;10.55;;;5.22;;
37873;SDS011;23709;48.078;11.684;2023-03-31T10:59:49;9.50;;;5.35;;
37873;SDS011;23709;48.078;11.684;2023-03-31T11:05:15;12.05;;;5.78;;
37873;SDS011;23709;48.078;11.684;2023-03-31T11:13:28;9.85;;;5.15;;
37873;SDS011;23709;48.078;11.684;2023-03-31T11:16:16;8.85;;;5.40;;
37873;SDS011;23709;48.078;11.684;2023-03-31T11:28:25;13.50;;;6.30;;
37873;SDS011;23709;48.078;11.684;2023-03-31T11:31:21;10.20;;;4.93;;
37873;SDS011;23709;48.078;11.684;2023-03-31T11:45:30;8.10;;;3.50;;
37873;SDS011;23709;48.078;11.684;2023-03-31T11:48:17;5.50;;;2.17;;
37873;SDS011;23709;48.078;11.684;2023-03-31T11:50:57;3.80;;;1.90;;
37873;SDS011;23709;48.078;11.684;2023-03-31T11:53:35;3.22;;;1.75;;
37873;SDS011;23709;48.078;11.684;2023-03-31T11:56:10;3.17;;;1.85;;
37873;SDS011;23709;48.078;11.684;2023-03-31T11:58:46;3.88;;;2.10;;
37873;SDS011;23709;48.078;11.684;2023-03-31T12:10:14;7.93;;;2.33;;
37873;SDS011;23709;48.078;11.684;2023-03-31T12:12:59;3.13;;;1.75;;
37873;SDS011;23709;48.078;11.684;2023-03-31T12:15:39;5.82;;;2.42;;
37873;SDS011;23709;48.078;11.684;2023-03-31T12:18:17;5.07;;;2.50;;
37873;SDS011;23709;48.078;11.684;2023-03-31T12:20:56;5.07;;;2.28;;
37873;SDS011;23709;48.078;11.684;2023-03-31T12:23:34;1.92;;;1.55;;
37873;SDS011;23709;48.078;11.684;2023-03-31T12:26:35;6.15;;;2.20;;
37873;SDS011;23709;48.078;11.684;2023-03-31T12:32:45;3.75;;;2.20;;
37873;SDS011;23709;48.078;11.684;2023-03-31T12:35:36;10.18;;;2.58;;
37873;SDS011;23709;48.078;11.684;2023-03-31T12:49:49;9.75;;;3.65;;
37873;SDS011;23709;48.078;11.684;2023-03-31T12:52:50;7.07;;;3.85;;
37873;SDS011;23709;48.078;11.684;2023-03-31T12:55:32;7.07;;;3.10;;
37873;SDS011;23709;48.078;11.684;2023-03-31T13:03:44;7.72;;;4.55;;
37873;SDS011;23709;48.078;11.684;2023-03-31T13:09:01;6.25;;;2.90;;
37873;SDS011;23709;48.078;11.684;2023-03-31T13:11:39;5.53;;;2.97;;
37873;SDS011;23709;48.078;11.684;2023-03-31T13:14:28;5.53;;;2.30;;
37873;SDS011;23709;48.078;11.684;2023-03-31T13:17:17;3.53;;;1.42;;
37873;SDS011;23709;48.078;11.684;2023-03-31T13:19:55;6.38;;;1.08;;
37873;SDS011;23709;48.078;11.684;2023-03-31T13:22:47;4.38;;;1.30;;
37873;SDS011;23709;48.078;11.684;2023-03-31T13:28:08;3.67;;;1.30;;
37873;SDS011;23709;48.078;11.684;2023-03-31T13:30:50;3.72;;;1.17;;
37873;SDS011;23709;48.078;11.684;2023-03-31T13:36:18;3.92;;;1.45;;
37873;SDS011;23709;48.078;11.684;2023-03-31T13:44:59;6.25;;;1.33;;
37873;SDS011;23709;48.078;11.684;2023-03-31T13:50:52;11.40;;;1.63;;
37873;SDS011;23709;48.078;11.684;2023-03-31T13:56:17;3.17;;;1.63;;
37873;SDS011;23709;48.078;11.684;2023-03-31T13:59:19;1.65;;;1.15;;
37873;SDS011;23709;48.078;11.684;2023-03-31T14:07:39;5.25;;;1.42;;
37873;SDS011;23709;48.078;11.684;2023-03-31T14:10:33;6.63;;;1.30;;
37873;SDS011;23709;48.078;11.684;2023-03-31T14:15:48;3.20;;;1.48;;
37873;SDS011;23709;48.078;11.684;2023-03-31T14:18:27;3.00;;;1.63;;
37873;SDS011;23709;48.078;11.684;2023-03-31T14:26:58;2.85;;;1.70;;
37873;SDS011;23709;48.078;11.684;2023-03-31T14:33:10;4.25;;;1.80;;
37873;SDS011;23709;48.078;11.684;2023-03-31T14:35:54;5.13;;;2.08;;
37873;SDS011;23709;48.078;11.684;2023-03-31T14:38:47;7.03;;;2.17;;
37873;SDS011;23709;48.078;11.684;2023-03-31T14:41:20;3.22;;;1.92;;
37873;SDS011;23709;48.078;11.684;2023-03-31T14:44:00;8.90;;;2.42;;
37873;SDS011;23709;48.078;11.684;2023-03-31T14:46:36;5.28;;;2.33;;
37873;SDS011;23709;48.078;11.684;2023-03-31T14:49:26;4.18;;;1.20;;
37873;SDS011;23709;48.078;11.684;2023-03-31T14:51:59;1.35;;;0.90;;
37873;SDS011;23709;48.078;11.684;2023-03-31T14:54:37;6.93;;;1.63;;
37873;SDS011;23709;48.078;11.684;2023-03-31T14:57:09;3.88;;;0.65;;
37873;SDS011;23709;48.078;11.684;2023-03-31T14:59:43;7.85;;;0.90;;
37873;SDS011;23709;48.078;11.684;2023-03-31T15:02:36;2.92;;;0.60;;
37873;SDS011;23709;48.078;11.684;2023-03-31T15:05:35;2.20;;;1.08;;
37873;SDS011;23709;48.078;11.684;2023-03-31T15:08:12;1.52;;;0.80;;
37873;SDS011;23709;48.078;11.684;2023-03-31T15:10:50;5.97;;;1.15;;
37873;SDS011;23709;48.078;11.684;2023-03-31T15:13:44;3.65;;;1.08;;
37873;SDS011;23709;48.078;11.684;2023-03-31T15:16:37;5.97;;;1.05;;
37873;SDS011;23709;48.078;11.684;2023-03-31T15:19:23;3.08;;;0.90;;
37873;SDS011;23709;48.078;11.684;2023-03-31T15:22:10;1.67;;;0.95;;
37873;SDS011;23709;48.078;11.684;2023-03-31T15:24:46;4.55;;;0.98;;
37873;SDS011;23709;48.078;11.684;2023-03-31T15:30:22;2.58;;;0.70;;
37873;SDS011;23709;48.078;11.684;2023-03-31T15:32:55;1.77;;;0.90;;
37873;SDS011;23709;48.078;11.684;2023-03-31T15:35:48;1.90;;;0.80;;
37873;SDS011;23709;48.078;11.684;2023-03-31T15:38:21;3.95;;;1.30;;
37873;SDS011;23709;48.078;11.684;2023-03-31T15:40:58;1.85;;;0.80;;
37873;SDS011;23709;48.078;11.684;2023-03-31T15:43:32;1.88;;;0.90;;
37873;SDS011;23709;48.078;11.684;2023-03-31T15:46:23;5.18;;;1.50;;
37873;SDS011;23709;48.078;11.684;2023-03-31T15:49:19;2.72;;;1.38;;
37873;SDS011;23709;48.078;11.684;2023-03-31T15:51:54;3.17;;;1.10;;
37873;SDS011;23709;48.078;11.684;2023-03-31T15:54:38;3.25;;;1.00;;
37873;SDS011;23709;48.078;11.684;2023-03-31T15:57:13;6.55;;;1.48;;
37873;SDS011;23709;48.078;11.684;2023-03-31T15:59:50;7.32;;;1.42;;
37873;SDS011;23709;48.078;11.684;2023-03-31T16:02:38;3.03;;;1.52;;
37873;SDS011;23709;48.078;11.684;2023-03-31T16:11:01;4.93;;;1.93;;
37873;SDS011;23709;48.078;11.684;2023-03-31T16:13:45;4.78;;;1.40;;
37873;SDS011;23709;48.078;11.684;2023-03-31T16:16:22;3.38;;;1.48;;
37873;SDS011;23709;48.078;11.684;2023-03-31T16:19:02;2.67;;;1.40;;
37873;SDS011;23709;48.078;11.684;2023-03-31T16:21:42;6.22;;;1.67;;
37873;SDS011;23709;48.078;11.684;2023-03-31T16:24:18;6.20;;;1.98;;
37873;SDS011;23709;48.078;11.684;2023-03-31T16:26:52;6.07;;;2.13;;
37873;SDS011;23709;48.078;11.684;2023-03-31T16:29:37;4.60;;;1.60;;
37873;SDS011;23709;48.078;11.684;2023-03-31T16:32:13;2.78;;;1.40;;
37873;SDS011;23709;48.078;11.684;2023-03-31T16:34:58;4.68;;;1.80;;
37873;SDS011;23709;48.078;11.684;2023-03-31T16:37:32;4.50;;;2.13;;
37873;SDS011;23709;48.078;11.684;2023-03-31T16:40:05;5.63;;;2.35;;
37873;SDS011;23709;48.078;11.684;2023-03-31T16:42:38;3.67;;;1.40;;
37873;SDS011;23709;48.078;11.684;2023-03-31T16:45:10;5.65;;;2.17;;
37873;SDS011;23709;48.078;11.684;2023-03-31T16:47:47;8.05;;;1.90;;
37873;SDS011;23709;48.078;11.684;2023-03-31T16:50:19;4.32;;;1.95;;
37873;SDS011;23709;48.078;11.684;2023-03-31T16:52:51;4.45;;;1.80;;
37873;SDS011;23709;48.078;11.684;2023-03-31T16:55:23;3.78;;;2.35;;
37873;SDS011;23709;48.078;11.684;2023-03-31T16:57:57;4.57;;;2.42;;
37873;SDS011;23709;48.078;11.684;2023-03-31T17:00:34;4.50;;;2.22;;
37873;SDS011;23709;48.078;11.684;2023-03-31T17:03:07;6.35;;;2.30;;
37873;SDS011;23709;48.078;11.684;2023-03-31T17:08:14;2.78;;;1.25;;
37873;SDS011;23709;48.078;11.684;2023-03-31T17:11:04;2.35;;;1.38;;
37873;SDS011;23709;48.078;11.684;2023-03-31T17:13:38;2.30;;;1.13;;
37873;SDS011;23709;48.078;11.684;2023-03-31T17:16:12;4.88;;;1.40;;
37873;SDS011;23709;48.078;11.684;2023-03-31T17:19:04;3.95;;;1.55;;
37873;SDS011;23709;48.078;11.684;2023-03-31T17:21:37;4.28;;;2.10;;
37873;SDS011;23709;48.078;11.684;2023-03-31T17:24:09;4.32;;;2.25;;
37873;SDS011;23709;48.078;11.684;2023-03-31T17:26:41;4.95;;;2.72;;
37873;SDS011;23709;48.078;11.684;2023-03-31T17:29:14;4.38;;;1.60;;
37873;SDS011;23709;48.078;11.684;2023-03-31T17:31:47;2.75;;;1.10;;
37873;SDS011;23709;48.078;11.684;2023-03-31T17:34:20;2.63;;;1.30;;
37873;SDS011;23709;48.078;11.684;2023-03-31T17:36:52;3.10;;;1.20;;
37873;SDS011;23709;48.078;11.684;2023-03-31T17:39:26;4.05;;;1.10;;
37873;SDS011;23709;48.078;11.684;2023-03-31T17:41:58;3.13;;;1.42;;
37873;SDS011;23709;48.078;11.684;2023-03-31T17:44:31;1.20;;;0.93;;
37873;SDS011;23709;48.078;11.684;2023-03-31T17:47:04;2.92;;;0.85;;
37873;SDS011;23709;48.078;11.684;2023-03-31T17:49:37;2.63;;;1.00;;
37873;SDS011;23709;48.078;11.684;2023-03-31T17:52:09;5.97;;;1.17;;
37873;SDS011;23709;48.078;11.684;2023-03-31T17:54:42;2.70;;;1.02;;
37873;SDS011;23709;48.078;11.684;2023-03-31T17:57:15;1.77;;;0.93;;
37873;SDS011;23709;48.078;11.684;2023-03-31T17:59:47;1.65;;;0.85;;
37873;SDS011;23709;48.078;11.684;2023-03-31T18:02:20;3.22;;;1.15;;
37873;SDS011;23709;48.078;11.684;2023-03-31T18:04:52;2.28;;;1.20;;
37873;SDS011;23709;48.078;11.684;2023-03-31T18:07:25;1.92;;;0.80;;
37873;SDS011;23709;48.078;11.684;2023-03-31T18:09:57;1.98;;;1.08;;
37873;SDS011;23709;48.078;11.684;2023-03-31T18:12:35;1.92;;;1.10;;
37873;SDS011;23709;48.078;11.684;2023-03-31T18:15:22;3.58;;;1.20;;
37873;SDS011;23709;48.078;11.684;2023-03-31T18:18:01;1.65;;;1.13;;
37873;SDS011;23709;48.078;11.684;2023-03-31T18:20:34;3.17;;;1.42;;
37873;SDS011;23709;48.078;11.684;2023-03-31T18:23:07;2.97;;;1.40;;
37873;SDS011;23709;48.078;11.684;2023-03-31T18:25:41;2.72;;;1.35;;
37873;SDS011;23709;48.078;11.684;2023-03-31T18:28:15;4.78;;;0.95;;
37873;SDS011;23709;48.078;11.684;2023-03-31T18:30:48;5.68;;;1.60;;